Sibenik HR Speed Test Log

Averages  Max Speed    
1 to 25 of 461** for City Sibenik HR
Time
  
  Speed   Provider Size    User ConnectID   TestID  
12/13/19 9:35:19 pm 47.16 Mbps 5.9 MB/sHrvatski 38.6 MB85410825392 cjgRfUqbq 
12/13/19 9:35:06 pm 66.56 Mbps 8.32 MB/sHrvatski 81.9 MB85410825392 GuCUL~uny 
12/13/19 9:34:18 pm 174.76 Mbps 21.85 MB/sHrvatski 100 MB85410825392 1yG-Mgk5c 
12/13/19 9:34:05 pm 3.32 Mbps 415 kB/sHrvatski 2.2 MB85410825392 pKuZoQrcQ 
12/10/19 6:30:59 pm 14.23 Mbps 1.78 MB/sHrvatski 79.7 MB817753549901 eeWJPvKEe 
12/9/19 8:44:58 pm 6.49 Mbps 812 kB/sHrvatski 7.4 MB81775357967 s_m6ZoNjA 
12/5/19 2:24:18 pm 1.91 Mbps 238 kB/sHrvatski 2.5 MB817753914517 _seqVPxv- 
12/3/19 5:04:24 pm 630 kbps 79 kB/sHrvatski 6 MB71544853518 YnGL33-Wz 
12/3/19 5:01:58 pm 12.3 Mbps 1.54 MB/sHrvatski 12 MB71544853518 fleN~MKKZ 
11/23/19 9:45:50 pm 6.62 Mbps 827 kB/sHrvatski 6.2 MB8541175868376 a80gN7ony 
11/23/19 9:45:37 pm 9.28 Mbps 1.16 MB/sHrvatski 21.1 MB8541175868376 cla5wndqB 
11/23/19 9:44:08 pm 6.49 Mbps 812 kB/sHrvatski 4.8 MB8541175868376 _qJ~1zaRc 
11/23/19 9:43:53 pm 8.57 Mbps 1.07 MB/sHrvatski 21.7 MB8541175868376 L~GyEg6NZ 
11/23/19 9:42:55 pm 7.2 Mbps 900 kB/sHrvatski 6.4 MB8541175868376 CEhFEv27F 
11/23/19 9:42:44 pm 22.85 Mbps 2.86 MB/sHrvatski 15.1 MB8541175868376 vUfYdo0NN 
11/23/19 9:41:45 pm 7.43 Mbps 929 kB/sHrvatski 6.2 MB8541175868376 wg9y4MfDW 
11/23/19 9:41:34 pm 1.79 Mbps 224 kB/sHrvatski 1.4 MB8541175868376 ~HMvo1MKf 
11/23/19 9:39:34 pm 7.84 Mbps 980 kB/sHrvatski 6.4 MB8541175868376 mG9oNFfUV 
11/23/19 9:39:23 pm 1.45 Mbps 182 kB/sHrvatski 2.3 MB8541175868376 dplGG1BxO 
11/23/19 9:38:22 pm 4.17 Mbps 522 kB/sHrvatski 6.1 MB8541175868376 vSTBgigyR 
11/23/19 9:38:03 pm 1.75 Mbps 219 kB/sHrvatski 1.5 MB8541175868376 7orEn-8Ac 
11/23/19 9:37:36 pm 1.47 Mbps 184 kB/sHrvatski 1.2 MB8541175868376 2b1X3EayQ 
11/23/19 9:37:25 pm 1.03 Mbps 129 kB/sHrvatski 2.4 MB8541175868376 bah5GNliw 
11/23/19 9:36:54 pm 7.58 Mbps 948 kB/sHrvatski 6.3 MB8541175868376 loTS16dgn 
11/23/19 9:36:43 pm 29.11 Mbps 3.64 MB/sHrvatski 53.8 MB8541175868376 AxWcdAmYX 
  
** Partial Results: The most recent results have been displayed. Results over 50 Mbps are highlighted.
Calculated from graphed results above not entire query.
Displaying Internet Speed Test results for City Sibenik HR

Minimum

Min 1.03 Mbps : 0.63 Mbps

Average

Avg 12.9 Mbps : 24.67 Mbps

Maximum

Max 66.56 Mbps : 174.76 Mbps

Minimum

Min: 1.03 Mbps : 0.63 Mbps |

Average

Avg: 12.9 Mbps : 24.67 Mbps |

Maximum

Max: 66.56 Mbps : 174.76 Mbps